createdAt,value
2023-02-26T00:00:21.439Z,9.82
2023-02-26T00:03:23.527Z,9.55
2023-02-26T00:06:27.371Z,9.40
2023-02-26T00:09:29.770Z,5.85
2023-02-26T00:12:32.718Z,5.00
2023-02-26T00:15:35.106Z,4.68
2023-02-26T00:18:38.037Z,6.80
2023-02-26T00:21:40.673Z,11.52
2023-02-26T00:24:42.677Z,6.95
2023-02-26T00:27:46.716Z,9.07
2023-02-26T00:30:49.168Z,12.88
2023-02-26T00:33:52.710Z,6.07
2023-02-26T00:37:17.977Z,6.95
2023-02-26T00:40:29.668Z,7.28
2023-02-26T00:43:32.023Z,7.15
2023-02-26T00:46:49.391Z,6.18
2023-02-26T00:50:18.152Z,7.10
2023-02-26T00:53:31.804Z,11.57
2023-02-26T00:56:33.712Z,10.25
2023-02-26T00:59:35.716Z,9.30
2023-02-26T01:02:39.339Z,6.63
2023-02-26T01:05:42.797Z,12.65
2023-02-26T01:09:09.842Z,6.90
2023-02-26T01:12:13.431Z,7.97
2023-02-26T01:15:17.074Z,7.95
2023-02-26T01:18:26.229Z,10.45
2023-02-26T01:21:41.993Z,11.13
2023-02-26T01:24:45.359Z,8.40
2023-02-26T01:27:47.674Z,10.52
2023-02-26T01:30:56.290Z,14.05
2023-02-26T01:34:06.744Z,12.57
2023-02-26T01:37:27.108Z,19.63
2023-02-26T01:40:50.412Z,17.48
2023-02-26T01:44:16.513Z,12.40
2023-02-26T01:47:29.004Z,10.52
2023-02-26T01:50:36.805Z,9.23
2023-02-26T01:53:40.571Z,12.98
2023-02-26T01:56:45.604Z,11.60
2023-02-26T01:59:51.555Z,8.52
2023-02-26T02:02:53.848Z,11.98
2023-02-26T02:06:04.970Z,10.57
2023-02-26T02:09:08.258Z,10.15
2023-02-26T02:12:17.587Z,9.23
2023-02-26T02:15:37.591Z,15.40
2023-02-26T02:19:07.521Z,13.32
2023-02-26T02:22:24.980Z,13.82
2023-02-26T02:26:03.955Z,14.40
2023-02-26T02:29:15.037Z,13.98
2023-02-26T02:32:25.922Z,10.90
2023-02-26T02:35:37.682Z,12.15
2023-02-26T02:38:49.149Z,10.95
2023-02-26T02:42:06.684Z,10.10
2023-02-26T02:45:22.237Z,9.55
2023-02-26T02:48:32.363Z,13.85
2023-02-26T02:51:47.419Z,10.45
2023-02-26T02:55:11.115Z,17.15
2023-02-26T02:58:21.219Z,11.07
2023-02-26T03:01:27.967Z,9.52
2023-02-26T03:04:30.268Z,9.23
2023-02-26T03:07:36.537Z,12.85
2023-02-26T03:10:39.089Z,12.38
2023-02-26T03:13:42.091Z,8.07
2023-02-26T03:17:16.110Z,9.15
2023-02-26T03:20:32.791Z,9.00
2023-02-26T03:23:59.227Z,10.88
2023-02-26T03:28:06.204Z,17.67
2023-02-26T03:31:20.328Z,11.10
2023-02-26T03:34:32.847Z,8.73
2023-02-26T03:37:46.560Z,7.38
2023-02-26T03:40:55.452Z,17.95
2023-02-26T03:44:07.892Z,11.85
2023-02-26T03:47:15.667Z,13.43
2023-02-26T03:50:42.858Z,11.80
2023-02-26T03:54:21.380Z,7.93
2023-02-26T03:57:33.123Z,9.20
2023-02-26T04:00:57.396Z,8.95
2023-02-26T04:04:04.927Z,14.32
2023-02-26T04:07:08.148Z,8.77
2023-02-26T04:10:14.935Z,9.60
2023-02-26T04:13:16.949Z,8.32
2023-02-26T04:16:19.730Z,8.48
2023-02-26T04:19:21.757Z,10.05
2023-02-26T04:22:24.305Z,7.82
2023-02-26T04:25:26.418Z,8.43
2023-02-26T04:28:28.688Z,10.43
2023-02-26T04:31:33.115Z,14.15
2023-02-26T04:34:35.235Z,12.20
2023-02-26T04:37:38.669Z,8.88
2023-02-26T04:40:40.691Z,11.55
2023-02-26T04:43:46.381Z,10.27
2023-02-26T04:47:03.493Z,9.15
2023-02-26T04:50:09.096Z,10.90
2023-02-26T04:53:11.110Z,10.90
2023-02-26T04:56:14.198Z,14.18
2023-02-26T04:59:17.163Z,9.88
2023-02-26T05:02:19.426Z,10.30
2023-02-26T05:05:23.786Z,10.90
2023-02-26T05:08:26.037Z,6.10
2023-02-26T05:11:29.561Z,9.07
2023-02-26T05:14:31.855Z,11.27
2023-02-26T05:17:33.934Z,9.85
2023-02-26T05:20:36.003Z,10.38
2023-02-26T05:23:38.053Z,11.48
2023-02-26T05:26:40.060Z,16.30
2023-02-26T05:29:45.021Z,9.45
2023-02-26T05:32:49.137Z,7.63
2023-02-26T05:35:51.264Z,13.80
2023-02-26T05:38:54.248Z,11.52
2023-02-26T05:41:57.139Z,10.57
2023-02-26T05:44:59.177Z,12.10
2023-02-26T05:48:01.542Z,11.13
2023-02-26T05:51:03.880Z,7.72
2023-02-26T05:54:06.436Z,11.65
2023-02-26T05:57:08.517Z,7.85
2023-02-26T06:00:11.345Z,7.60
2023-02-26T06:03:15.972Z,12.13
2023-02-26T06:06:18.664Z,10.68
2023-02-26T06:09:20.832Z,16.48
2023-02-26T06:12:22.935Z,8.68
2023-02-26T06:15:25.496Z,6.45
2023-02-26T06:18:27.582Z,11.15
2023-02-26T06:21:29.997Z,9.80
2023-02-26T06:24:33.022Z,5.47
2023-02-26T06:27:35.402Z,9.30
2023-02-26T06:30:37.765Z,11.18
2023-02-26T06:33:39.883Z,8.60
2023-02-26T06:36:42.009Z,10.48
2023-02-26T06:39:43.989Z,8.98
2023-02-26T06:42:46.180Z,4.65
2023-02-26T06:45:48.541Z,8.07
2023-02-26T06:48:50.805Z,3.40
2023-02-26T06:51:52.988Z,6.55
2023-02-26T06:54:54.945Z,3.03
2023-02-26T06:57:57.830Z,2.90
2023-02-26T07:01:00.362Z,3.72
2023-02-26T07:04:02.435Z,2.20
2023-02-26T07:07:04.634Z,11.27
2023-02-26T07:10:08.049Z,12.95
2023-02-26T07:13:10.068Z,12.23
2023-02-26T07:16:12.605Z,6.07
2023-02-26T07:19:15.735Z,5.63
2023-02-26T07:22:21.749Z,3.47
2023-02-26T07:25:25.550Z,3.97
2023-02-26T07:28:27.721Z,3.40
2023-02-26T07:31:31.613Z,7.55
2023-02-26T07:34:33.904Z,4.70
2023-02-26T07:37:35.927Z,6.30
2023-02-26T07:40:37.991Z,3.40
2023-02-26T07:43:40.045Z,5.50
2023-02-26T07:46:42.159Z,5.57
2023-02-26T07:49:44.318Z,2.95
2023-02-26T07:52:47.012Z,6.35
2023-02-26T07:55:49.354Z,9.60
2023-02-26T07:58:53.567Z,5.55
2023-02-26T08:01:56.963Z,5.15
2023-02-26T08:04:59.432Z,10.50
2023-02-26T08:08:02.243Z,5.65
2023-02-26T08:11:04.557Z,5.05
2023-02-26T08:14:08.051Z,4.07
2023-02-26T08:17:11.740Z,2.72
2023-02-26T08:20:15.426Z,4.90
2023-02-26T08:23:17.588Z,2.83
2023-02-26T08:26:19.796Z,3.00
2023-02-26T08:29:22.039Z,1.48
2023-02-26T08:32:24.300Z,3.10
2023-02-26T08:35:26.393Z,1.30
2023-02-26T08:38:29.656Z,2.03
2023-02-26T08:41:32.795Z,1.88
2023-02-26T08:44:35.067Z,2.42
2023-02-26T08:47:42.378Z,5.93
2023-02-26T08:50:48.210Z,6.72
2023-02-26T08:53:50.866Z,3.22
2023-02-26T08:56:57.886Z,4.18
2023-02-26T08:59:59.966Z,3.22
2023-02-26T09:03:02.302Z,2.90
2023-02-26T09:06:07.618Z,3.58
2023-02-26T09:09:10.349Z,4.65
2023-02-26T09:12:12.487Z,8.50
2023-02-26T09:15:15.348Z,3.15
2023-02-26T09:18:19.391Z,4.45
2023-02-26T09:21:22.971Z,5.25
2023-02-26T09:24:25.257Z,3.47
2023-02-26T09:27:28.164Z,4.45
2023-02-26T09:30:30.381Z,4.43
2023-02-26T09:33:32.502Z,3.72
2023-02-26T09:36:34.878Z,1.65
2023-02-26T09:39:37.496Z,2.40
2023-02-26T09:43:08.004Z,2.97
2023-02-26T09:46:31.900Z,10.23
2023-02-26T09:49:59.270Z,3.40
2023-02-26T09:53:31.527Z,1.70
2023-02-26T09:56:37.141Z,1.88
2023-02-26T09:59:39.347Z,3.67
2023-02-26T10:03:06.113Z,4.53
2023-02-26T10:06:21.444Z,2.63
2023-02-26T10:09:55.606Z,1.60
2023-02-26T10:13:00.603Z,2.47
2023-02-26T10:16:12.260Z,3.15
2023-02-26T10:19:19.394Z,4.40
2023-02-26T10:22:30.190Z,4.03
2023-02-26T10:25:41.903Z,4.15
2023-02-26T10:29:02.411Z,6.30
2023-02-26T10:32:19.180Z,3.35
2023-02-26T10:35:26.353Z,10.85
2023-02-26T10:38:31.500Z,5.95
2023-02-26T10:41:37.443Z,3.35
2023-02-26T10:45:12.307Z,3.30
2023-02-26T10:48:31.912Z,3.88
2023-02-26T10:51:39.456Z,3.30
2023-02-26T10:54:47.544Z,2.67
2023-02-26T10:58:03.618Z,2.05
2023-02-26T11:01:16.680Z,3.08
2023-02-26T11:04:26.282Z,2.00
2023-02-26T11:07:32.311Z,2.97
2023-02-26T11:10:51.713Z,2.13
2023-02-26T11:13:53.760Z,3.03
2023-02-26T11:17:02.708Z,1.58
2023-02-26T11:20:32.601Z,2.45
2023-02-26T11:23:35.392Z,5.60
2023-02-26T11:26:38.939Z,1.80
2023-02-26T11:29:46.655Z,2.42
2023-02-26T11:32:53.727Z,2.25
2023-02-26T11:36:01.773Z,1.38
2023-02-26T11:39:23.993Z,1.48
2023-02-26T11:42:28.114Z,2.15
2023-02-26T11:45:34.667Z,3.65
2023-02-26T11:48:49.175Z,4.78
2023-02-26T11:52:36.865Z,11.07
2023-02-26T11:55:44.672Z,2.70
2023-02-26T11:58:47.303Z,2.30
2023-02-26T12:01:53.819Z,2.53
2023-02-26T12:05:09.125Z,8.73
2023-02-26T12:08:33.065Z,3.30
2023-02-26T12:12:12.906Z,5.22
2023-02-26T12:15:22.047Z,2.83
2023-02-26T12:18:30.790Z,1.80
2023-02-26T12:21:49.099Z,3.15
2023-02-26T12:25:06.661Z,2.92
2023-02-26T12:28:29.931Z,1.27
2023-02-26T12:32:04.327Z,3.25
2023-02-26T12:35:33.245Z,2.85
2023-02-26T12:38:52.774Z,1.43
2023-02-26T12:42:13.143Z,4.63
2023-02-26T12:45:26.609Z,1.60
2023-02-26T12:48:43.742Z,2.85
2023-02-26T12:52:16.264Z,3.03
2023-02-26T12:55:48.878Z,2.95
2023-02-26T12:58:50.879Z,2.65
2023-02-26T13:02:30.046Z,1.75
2023-02-26T13:06:00.890Z,2.78
2023-02-26T13:09:11.638Z,3.50
2023-02-26T13:12:30.824Z,1.67
2023-02-26T13:15:53.610Z,4.65
2023-02-26T13:18:55.572Z,1.88
2023-02-26T13:22:16.055Z,2.75
2023-02-26T13:25:52.120Z,3.15
2023-02-26T13:29:03.041Z,3.22
2023-02-26T13:32:16.269Z,1.15
2023-02-26T13:35:45.437Z,2.72
2023-02-26T13:39:07.569Z,1.33
2023-02-26T13:42:28.446Z,2.80
2023-02-26T13:45:36.152Z,2.63
2023-02-26T13:48:43.824Z,3.47
2023-02-26T13:51:49.032Z,12.47
2023-02-26T13:54:53.893Z,7.78
2023-02-26T13:57:58.260Z,3.05
2023-02-26T14:01:17.869Z,6.18
2023-02-26T14:04:28.639Z,4.45
2023-02-26T14:07:53.332Z,3.42
2023-02-26T14:11:02.896Z,3.22
2023-02-26T14:14:25.492Z,4.85
2023-02-26T14:17:37.226Z,2.03
2023-02-26T14:20:39.859Z,2.70
2023-02-26T14:23:42.153Z,2.03
2023-02-26T14:26:50.854Z,1.02
2023-02-26T14:30:01.115Z,2.30
2023-02-26T14:33:08.671Z,2.40
2023-02-26T14:36:40.723Z,1.77
2023-02-26T14:40:00.158Z,4.88
2023-02-26T14:43:05.934Z,4.45
2023-02-26T14:46:10.375Z,9.00
2023-02-26T14:49:29.403Z,8.13
2023-02-26T14:52:53.304Z,2.95
2023-02-26T14:56:21.367Z,2.40
2023-02-26T14:59:41.890Z,6.20
2023-02-26T15:02:56.913Z,12.30
2023-02-26T15:06:14.772Z,6.47
2023-02-26T15:09:29.235Z,7.13
2023-02-26T15:13:02.415Z,2.50
2023-02-26T15:16:16.337Z,3.95
2023-02-26T15:19:27.351Z,2.90
2023-02-26T15:22:52.156Z,2.78
2023-02-26T15:25:59.619Z,4.85
2023-02-26T15:29:05.829Z,5.28
2023-02-26T15:32:26.002Z,3.25
2023-02-26T15:35:30.922Z,9.40
2023-02-26T15:38:46.586Z,3.08
2023-02-26T15:41:51.000Z,3.53
2023-02-26T15:44:57.321Z,5.05
2023-02-26T15:48:05.013Z,5.93
2023-02-26T15:51:10.792Z,7.53
2023-02-26T15:54:22.534Z,3.92
2023-02-26T15:57:26.689Z,5.63
2023-02-26T16:00:33.973Z,4.93
2023-02-26T16:03:38.841Z,4.63
2023-02-26T16:06:46.717Z,3.17
2023-02-26T16:09:54.585Z,5.10
2023-02-26T16:12:56.647Z,11.53
2023-02-26T16:16:03.119Z,3.70
2023-02-26T16:19:06.570Z,4.32
2023-02-26T16:22:24.071Z,3.95
2023-02-26T16:25:34.028Z,3.15
2023-02-26T16:28:45.887Z,3.55
2023-02-26T16:31:54.494Z,6.07
2023-02-26T16:35:00.665Z,7.90
2023-02-26T16:38:21.465Z,4.07
2023-02-26T16:41:25.832Z,4.70
2023-02-26T16:44:29.854Z,5.30
2023-02-26T16:47:32.528Z,6.22
2023-02-26T16:50:36.909Z,4.32
2023-02-26T16:53:45.999Z,5.32
2023-02-26T16:56:58.554Z,4.80
2023-02-26T17:00:10.030Z,4.47
2023-02-26T17:03:17.532Z,3.55
2023-02-26T17:06:20.528Z,6.80
2023-02-26T17:09:44.759Z,5.53
2023-02-26T17:12:50.747Z,6.18
2023-02-26T17:15:55.138Z,4.30
2023-02-26T17:18:57.277Z,6.60
2023-02-26T17:21:59.445Z,5.82
2023-02-26T17:25:01.618Z,6.35
2023-02-26T17:28:04.635Z,5.57
2023-02-26T17:31:07.734Z,4.80
2023-02-26T17:34:12.744Z,3.92
2023-02-26T17:37:16.221Z,7.30
2023-02-26T17:40:23.499Z,6.05
2023-02-26T17:43:27.924Z,5.88
2023-02-26T17:46:32.299Z,7.57
2023-02-26T17:49:37.313Z,4.78
2023-02-26T17:52:39.597Z,7.30
2023-02-26T17:55:42.172Z,8.32
2023-02-26T17:58:45.703Z,10.90
2023-02-26T18:01:47.734Z,6.82
2023-02-26T18:04:50.125Z,4.85
2023-02-26T18:07:54.863Z,4.25
2023-02-26T18:10:57.872Z,5.28
2023-02-26T18:14:01.422Z,5.20
2023-02-26T18:17:03.815Z,6.68
2023-02-26T18:20:08.206Z,15.20
2023-02-26T18:23:13.931Z,5.15
2023-02-26T18:26:18.796Z,4.97
2023-02-26T18:29:21.040Z,6.43
2023-02-26T18:32:25.818Z,4.35
2023-02-26T18:35:30.852Z,7.22
2023-02-26T18:38:33.713Z,5.47
2023-02-26T18:41:35.916Z,4.93
2023-02-26T18:44:37.955Z,3.33
2023-02-26T18:47:41.562Z,7.13
2023-02-26T18:50:46.025Z,4.82
2023-02-26T18:53:48.667Z,4.70
2023-02-26T18:56:50.880Z,8.60
2023-02-26T18:59:52.956Z,7.35
2023-02-26T19:02:55.641Z,6.10
2023-02-26T19:06:04.597Z,4.07
2023-02-26T19:09:06.971Z,5.55
2023-02-26T19:12:10.945Z,4.40
2023-02-26T19:15:14.486Z,4.68
2023-02-26T19:18:20.485Z,6.35
2023-02-26T19:21:22.998Z,5.50
2023-02-26T19:24:26.411Z,5.05
2023-02-26T19:27:28.892Z,6.85
2023-02-26T19:30:31.213Z,6.95
2023-02-26T19:33:33.884Z,9.68
2023-02-26T19:36:36.151Z,7.35
2023-02-26T19:39:38.638Z,6.22
2023-02-26T19:42:41.611Z,6.38
2023-02-26T19:45:43.788Z,5.88
2023-02-26T19:48:45.769Z,5.18
2023-02-26T19:51:47.756Z,5.63
2023-02-26T19:54:49.785Z,7.85
2023-02-26T19:57:51.795Z,6.45
2023-02-26T20:00:53.857Z,6.40
2023-02-26T20:03:55.920Z,5.28
2023-02-26T20:06:59.224Z,7.43
2023-02-26T20:10:01.487Z,7.07
2023-02-26T20:13:04.429Z,7.25
2023-02-26T20:16:09.816Z,4.88
2023-02-26T20:19:13.022Z,6.00
2023-02-26T20:22:16.643Z,6.60
2023-02-26T20:25:20.114Z,8.80
2023-02-26T20:28:22.656Z,7.05
2023-02-26T20:31:27.140Z,6.15
2023-02-26T20:34:33.558Z,8.25
2023-02-26T20:37:35.657Z,5.93
2023-02-26T20:40:38.714Z,7.63
2023-02-26T20:43:44.832Z,6.25
2023-02-26T20:46:47.132Z,9.35
2023-02-26T20:49:49.360Z,8.27
2023-02-26T20:52:54.839Z,10.90
2023-02-26T20:55:57.182Z,6.13
2023-02-26T20:58:59.355Z,9.40
2023-02-26T21:02:01.458Z,7.95
2023-02-26T21:05:08.123Z,8.10
2023-02-26T21:08:10.737Z,7.72
2023-02-26T21:11:13.642Z,8.30
2023-02-26T21:14:15.883Z,7.40
2023-02-26T21:17:18.805Z,9.10
2023-02-26T21:20:22.360Z,10.85
2023-02-26T21:23:26.971Z,9.23
2023-02-26T21:26:29.064Z,13.73
2023-02-26T21:29:31.198Z,9.40
2023-02-26T21:32:35.850Z,6.00
2023-02-26T21:35:39.547Z,7.88
2023-02-26T21:38:43.216Z,6.80
2023-02-26T21:41:47.155Z,9.82
2023-02-26T21:44:49.664Z,6.68
2023-02-26T21:47:52.099Z,7.22
2023-02-26T21:50:56.682Z,9.32
2023-02-26T21:53:58.844Z,6.03
2023-02-26T21:57:00.976Z,7.22
2023-02-26T22:00:05.982Z,6.38
2023-02-26T22:03:13.781Z,7.15
2023-02-26T22:06:15.877Z,6.20
2023-02-26T22:09:21.441Z,6.65
2023-02-26T22:12:23.560Z,5.65
2023-02-26T22:15:25.721Z,6.63
2023-02-26T22:18:27.869Z,6.18
2023-02-26T22:21:29.975Z,6.88
2023-02-26T22:24:32.089Z,5.93
2023-02-26T22:27:34.280Z,8.30
2023-02-26T22:30:36.410Z,6.28
2023-02-26T22:33:38.685Z,5.78
2023-02-26T22:36:40.793Z,6.95
2023-02-26T22:39:43.050Z,5.28
2023-02-26T22:42:45.516Z,6.10
2023-02-26T22:45:57.572Z,6.07
2023-02-26T22:49:04.472Z,12.13
2023-02-26T22:52:08.050Z,5.50
2023-02-26T22:55:11.492Z,5.68
2023-02-26T22:58:13.620Z,11.35
2023-02-26T23:01:17.562Z,4.70
2023-02-26T23:04:19.979Z,6.65
2023-02-26T23:07:21.980Z,5.05
2023-02-26T23:10:31.371Z,5.07
2023-02-26T23:13:39.621Z,4.80
2023-02-26T23:16:42.069Z,3.85
2023-02-26T23:19:44.853Z,7.45
2023-02-26T23:22:46.936Z,5.53
2023-02-26T23:25:49.025Z,3.83
2023-02-26T23:28:51.263Z,4.88
2023-02-26T23:31:53.802Z,6.68
2023-02-26T23:34:55.957Z,6.07
2023-02-26T23:37:57.981Z,6.07
2023-02-26T23:41:00.155Z,5.22
2023-02-26T23:44:02.246Z,4.80
2023-02-26T23:47:04.333Z,8.18
2023-02-26T23:50:07.117Z,5.38
2023-02-26T23:53:09.391Z,6.47
2023-02-26T23:56:11.807Z,4.82
2023-02-26T23:59:13.936Z,8.77
